Time;durP1;ratioP1;P1;durP2;ratioP2;P2;SDS_P1;SDS_P2;PMS_P1;PMS_P2;Temp;Humidity;BMP_temperature;BMP_pressure;BME280_temperature;BME280_humidity;BME280_pressure;Samples;Min_cycle;Max_cycle;Signal;HPM_P1;HPM_P2
2023/06/11 00:01:54;;;;;;;9.90;4.47;;;12.30;67.50;;;;;;4971003;28;20260;-69
2023/06/11 00:04:24;;;;;;;9.33;3.90;;;12.40;67.50;;;;;;4970884;28;20247;-70
2023/06/11 00:07:00;;;;;;;6.80;3.83;;;12.40;66.80;;;;;;4967061;28;20281;-71
2023/06/11 00:09:28;;;;;;;8.53;4.33;;;12.50;66.80;;;;;;4969516;28;20244;-71
2023/06/11 00:11:56;;;;;;;7.33;3.57;;;12.70;66.50;;;;;;4971669;28;20233;-68
2023/06/11 00:14:24;;;;;;;9.23;4.07;;;12.80;66.40;;;;;;4968668;28;20221;-70
2023/06/11 00:16:51;;;;;;;5.93;3.73;;;12.90;66.10;;;;;;4971494;28;20182;-71
2023/06/11 00:19:20;;;;;;;10.80;3.87;;;13.10;65.90;;;;;;4970906;28;20644;-69
2023/06/11 00:21:48;;;;;;;10.17;4.07;;;13.10;65.90;;;;;;4969089;28;20183;-68
2023/06/11 00:24:16;;;;;;;7.70;3.10;;;13.10;65.20;;;;;;4955349;28;20195;-71
2023/06/11 00:26:44;;;;;;;6.00;3.60;;;13.20;64.70;;;;;;4975415;28;20197;-71
2023/06/11 00:29:11;;;;;;;7.03;3.70;;;13.20;64.20;;;;;;4975121;28;20674;-68
2023/06/11 00:31:39;;;;;;;9.00;3.63;;;13.20;63.30;;;;;;4972979;28;20673;-69
2023/06/11 00:34:06;;;;;;;10.20;3.97;;;13.30;63.30;;;;;;4974314;28;20197;-69
2023/06/11 00:36:35;;;;;;;10.77;3.77;;;13.40;64.30;;;;;;4974306;28;20182;-69
2023/06/11 00:39:02;;;;;;;8.23;4.17;;;13.60;63.90;;;;;;4972777;28;20269;-70
2023/06/11 00:41:30;;;;;;;6.43;3.33;;;13.80;63.90;;;;;;4975288;28;20764;-69
2023/06/11 00:44:00;;;;;;;10.03;3.80;;;13.80;62.80;;;;;;4975795;28;20191;-70
2023/06/11 00:46:27;;;;;;;7.87;3.50;;;13.90;62.70;;;;;;4973953;28;20206;-71
2023/06/11 00:48:55;;;;;;;8.40;3.97;;;14.00;62.00;;;;;;4973844;28;20213;-72
2023/06/11 00:51:24;;;;;;;9.37;3.70;;;14.10;61.10;;;;;;4973860;28;20226;-71
2023/06/11 00:53:52;;;;;;;11.20;4.10;;;14.10;60.90;;;;;;4967694;28;20271;-70
2023/06/11 00:56:20;;;;;;;6.53;3.07;;;14.20;61.40;;;;;;4970286;28;20198;-72
2023/06/11 00:58:49;;;;;;;8.77;3.73;;;14.30;60.80;;;;;;4974058;28;20186;-72
2023/06/11 01:01:26;;;;;;;8.17;3.83;;;14.40;60.50;;;;;;4973932;28;20235;-69
2023/06/11 01:04:00;;;;;;;8.90;3.80;;;14.40;60.80;;;;;;4974150;28;20571;-71
2023/06/11 01:06:33;;;;;;;10.83;3.37;;;14.70;61.00;;;;;;4976637;28;20220;-72
2023/06/11 01:09:01;;;;;;;5.33;3.43;;;14.70;60.10;;;;;;4974765;28;20190;-70
2023/06/11 01:11:29;;;;;;;6.97;3.17;;;14.80;59.30;;;;;;4973169;28;20218;-68
2023/06/11 01:13:56;;;;;;;7.27;3.13;;;14.80;58.80;;;;;;4973926;28;20183;-68
2023/06/11 01:16:42;;;;;;;7.77;3.40;;;14.90;58.20;;;;;;4974407;28;20635;-71
2023/06/11 01:19:37;;;;;;;6.07;3.13;;;15.20;58.00;;;;;;4975053;28;20214;-71
2023/06/11 01:22:17;;;;;;;4.60;3.20;;;15.40;58.10;;;;;;4974232;28;20299;-70
2023/06/11 01:25:14;;;;;;;13.43;3.33;;;15.60;58.40;;;;;;4974128;28;20268;-66
2023/06/11 01:28:02;;;;;;;10.30;4.40;;;15.70;56.30;;;;;;4970597;28;20183;-71
2023/06/11 01:30:52;;;;;;;6.77;3.70;;;15.80;56.00;;;;;;4971321;28;20243;-70
2023/06/11 01:33:20;;;;;;;7.23;3.13;;;16.20;55.50;;;;;;4971182;28;20195;-66
2023/06/11 01:35:48;;;;;;;8.30;3.77;;;16.00;56.50;;;;;;4974410;28;20181;-72
2023/06/11 01:38:21;;;;;;;7.63;3.63;;;16.20;56.40;;;;;;4965193;28;20220;-71
2023/06/11 01:40:49;;;;;;;14.77;3.77;;;16.30;54.90;;;;;;4972096;28;20215;-68
2023/06/11 01:43:20;;;;;;;7.30;3.50;;;16.50;55.10;;;;;;4973231;28;20644;-72
2023/06/11 01:45:47;;;;;;;6.60;3.17;;;16.50;53.80;;;;;;4971893;28;20617;-70
2023/06/11 01:48:14;;;;;;;10.90;3.37;;;16.60;54.00;;;;;;4967607;28;20196;-66
2023/06/11 01:50:42;;;;;;;8.50;3.17;;;16.90;53.80;;;;;;4970784;28;20213;-69
2023/06/11 01:53:11;;;;;;;9.23;4.07;;;17.10;52.40;;;;;;4971666;28;20233;-66
2023/06/11 01:55:39;;;;;;;7.00;3.33;;;16.80;52.90;;;;;;4973762;28;20609;-66
2023/06/11 01:58:07;;;;;;;8.43;3.30;;;16.90;53.00;;;;;;4972804;28;20186;-71
2023/06/11 02:00:34;;;;;;;8.93;3.30;;;17.10;52.30;;;;;;4969362;28;20202;-70
2023/06/11 02:03:02;;;;;;;6.70;3.27;;;17.20;52.20;;;;;;4966243;28;20201;-67
2023/06/11 02:05:31;;;;;;;8.43;3.10;;;17.30;51.50;;;;;;4969497;28;20381;-71
2023/06/11 02:07:58;;;;;;;7.60;3.47;;;17.30;51.70;;;;;;4970691;28;20186;-70
2023/06/11 02:10:27;;;;;;;7.93;3.33;;;17.50;51.70;;;;;;4968951;28;20221;-71
2023/06/11 02:12:54;;;;;;;7.23;3.20;;;17.50;51.30;;;;;;4973179;28;20633;-67
2023/06/11 02:15:22;;;;;;;9.73;3.50;;;17.60;50.70;;;;;;4973713;28;20186;-67
2023/06/11 02:17:49;;;;;;;9.17;3.10;;;17.80;50.20;;;;;;4957395;28;20190;-69
2023/06/11 02:20:16;;;;;;;14.90;3.70;;;17.70;50.50;;;;;;4973505;28;20225;-71
2023/06/11 02:22:44;;;;;;;4.90;2.73;;;17.90;49.60;;;;;;4973496;28;20692;-70
2023/06/11 02:25:11;;;;;;;6.87;2.73;;;18.10;49.10;;;;;;4972781;28;20222;-70
2023/06/11 02:27:38;;;;;;;7.97;2.70;;;18.10;48.50;;;;;;4974094;28;20762;-68
2023/06/11 02:30:06;;;;;;;6.63;2.53;;;17.80;48.20;;;;;;4972628;28;20182;-71
2023/06/11 02:32:34;;;;;;;5.07;2.17;;;18.00;48.20;;;;;;4969694;28;20577;-70
2023/06/11 02:35:01;;;;;;;5.90;2.30;;;18.20;47.20;;;;;;4962234;28;20187;-71
2023/06/11 02:37:29;;;;;;;6.47;2.67;;;18.00;47.00;;;;;;4971282;28;20229;-68
2023/06/11 02:39:56;;;;;;;10.47;2.30;;;18.30;47.60;;;;;;4972670;28;20209;-70
2023/06/11 02:42:23;;;;;;;4.67;1.40;;;18.40;46.80;;;;;;4971445;28;20183;-70
2023/06/11 02:44:51;;;;;;;5.30;2.00;;;18.40;43.30;;;;;;4974036;28;20183;-69
2023/06/11 02:47:18;;;;;;;5.83;2.50;;;18.30;44.60;;;;;;4970849;28;20613;-72
2023/06/11 02:49:45;;;;;;;7.10;2.87;;;18.30;45.10;;;;;;4968337;28;20202;-67
2023/06/11 02:52:13;;;;;;;11.33;2.77;;;18.00;46.20;;;;;;4973526;28;20242;-67
2023/06/11 02:54:40;;;;;;;5.53;2.30;;;17.90;47.10;;;;;;4972967;28;20295;-71
2023/06/11 02:57:07;;;;;;;6.10;2.60;;;18.00;46.00;;;;;;4972718;28;20185;-68
2023/06/11 02:59:34;;;;;;;7.53;2.60;;;18.00;46.60;;;;;;4973950;28;20191;-67
2023/06/11 03:02:02;;;;;;;4.60;2.33;;;18.00;47.10;;;;;;4972669;28;20179;-71
2023/06/11 03:04:29;;;;;;;5.20;2.20;;;17.90;47.20;;;;;;4970673;28;20184;-66
2023/06/11 03:06:57;;;;;;;7.30;2.60;;;17.70;47.90;;;;;;4973352;28;20215;-68
2023/06/11 03:09:24;;;;;;;5.33;2.80;;;17.80;48.20;;;;;;4968951;28;20183;-67
2023/06/11 03:11:52;;;;;;;8.57;2.10;;;17.80;49.00;;;;;;4973660;28;20214;-69
2023/06/11 03:14:24;;;;;;;7.70;2.40;;;17.90;48.40;;;;;;4970984;28;20649;-71
2023/06/11 03:16:52;;;;;;;6.37;2.50;;;18.00;47.80;;;;;;4972583;28;20265;-69
2023/06/11 03:19:19;;;;;;;4.00;2.30;;;18.00;47.80;;;;;;4971824;28;20217;-71
2023/06/11 03:21:47;;;;;;;5.03;2.23;;;18.30;47.80;;;;;;4972050;28;20186;-71
2023/06/11 03:24:15;;;;;;;6.17;2.77;;;18.20;47.20;;;;;;4972303;28;20261;-71
2023/06/11 03:26:42;;;;;;;6.43;2.87;;;18.20;48.00;;;;;;4972351;28;20179;-71
2023/06/11 03:29:09;;;;;;;6.83;2.50;;;18.50;46.90;;;;;;4972497;28;20187;-71
2023/06/11 03:31:40;;;;;;;8.80;2.47;;;18.40;46.80;;;;;;4971614;28;20210;-72
2023/06/11 03:34:07;;;;;;;7.40;2.50;;;18.80;45.90;;;;;;4972181;28;20189;-72
2023/06/11 03:36:36;;;;;;;5.00;2.00;;;19.10;44.70;;;;;;4972384;28;20208;-72
2023/06/11 03:39:04;;;;;;;3.90;2.10;;;19.50;44.80;;;;;;4968831;28;20179;-71
2023/06/11 03:41:31;;;;;;;4.20;2.17;;;19.50;45.20;;;;;;4972581;28;20257;-72
2023/06/11 03:43:58;;;;;;;5.03;2.50;;;20.10;43.70;;;;;;4971284;28;20190;-71
2023/06/11 03:46:26;;;;;;;6.07;2.60;;;20.10;43.80;;;;;;4971719;28;20205;-71
2023/06/11 03:48:53;;;;;;;6.13;2.13;;;20.20;43.40;;;;;;4972343;28;20175;-72
2023/06/11 03:51:20;;;;;;;9.83;2.43;;;20.80;43.10;;;;;;4971760;28;20292;-72
2023/06/11 03:53:48;;;;;;;4.37;2.00;;;21.30;41.10;;;;;;4972316;28;20657;-70
2023/06/11 03:56:15;;;;;;;5.53;2.17;;;21.60;40.40;;;;;;4972187;28;20704;-70
2023/06/11 03:58:42;;;;;;;5.27;2.37;;;21.90;39.70;;;;;;4971590;28;20198;-68
2023/06/11 04:01:10;;;;;;;5.43;2.30;;;21.80;40.10;;;;;;4970936;28;20202;-71
2023/06/11 04:03:37;;;;;;;7.43;2.83;;;21.90;40.60;;;;;;4972083;28;20663;-70
2023/06/11 04:06:04;;;;;;;5.37;2.23;;;21.70;40.20;;;;;;4971332;28;20306;-71
2023/06/11 04:08:31;;;;;;;5.27;2.13;;;21.80;39.80;;;;;;4971942;28;20656;-69
2023/06/11 04:10:59;;;;;;;5.03;2.23;;;21.80;39.80;;;;;;4971100;28;20214;-71
2023/06/11 04:13:26;;;;;;;6.03;2.27;;;21.80;39.80;;;;;;4965556;28;20236;-70
2023/06/11 04:15:54;;;;;;;4.70;2.17;;;22.20;39.10;;;;;;4971452;28;20183;-68
2023/06/11 04:18:21;;;;;;;4.30;2.00;;;22.00;39.60;;;;;;4972378;28;20241;-70
2023/06/11 04:20:49;;;;;;;4.67;1.87;;;22.10;39.60;;;;;;4971921;28;20198;-70
2023/06/11 04:23:16;;;;;;;4.47;1.93;;;22.60;39.00;;;;;;4972037;28;20194;-72
2023/06/11 04:25:43;;;;;;;6.07;2.30;;;22.80;38.50;;;;;;4972341;28;20624;-72
2023/06/11 04:28:16;;;;;;;9.60;2.23;;;22.40;38.30;;;;;;4971708;28;20202;-71
2023/06/11 04:30:43;;;;;;;5.23;2.20;;;22.80;38.30;;;;;;4964032;28;20236;-69
2023/06/11 04:33:11;;;;;;;5.37;2.27;;;22.90;38.10;;;;;;4972074;28;20202;-71
2023/06/11 04:35:39;;;;;;;5.27;1.80;;;23.20;37.80;;;;;;4970720;28;20712;-70
2023/06/11 04:38:06;;;;;;;6.37;1.93;;;22.60;39.00;;;;;;4969564;28;20265;-66
2023/06/11 04:40:34;;;;;;;6.90;1.90;;;22.30;39.10;;;;;;4967795;28;20175;-66
2023/06/11 04:43:01;;;;;;;5.37;1.97;;;23.00;38.00;;;;;;4972329;28;20183;-66
2023/06/11 04:45:30;;;;;;;4.90;2.30;;;23.00;37.50;;;;;;4968928;28;20331;-66
2023/06/11 04:47:58;;;;;;;6.40;2.27;;;22.50;39.20;;;;;;4971148;28;20636;-66
2023/06/11 04:50:25;;;;;;;3.73;1.97;;;22.20;39.80;;;;;;4967442;28;20182;-66
2023/06/11 04:52:53;;;;;;;5.00;2.57;;;22.50;39.50;;;;;;4970471;28;20234;-68
2023/06/11 04:55:24;;;;;;;5.70;2.50;;;21.70;40.80;;;;;;4970645;28;20266;-69
2023/06/11 04:57:51;;;;;;;7.27;2.70;;;21.80;40.70;;;;;;4969180;28;20216;-70
2023/06/11 05:00:19;;;;;;;7.30;2.53;;;22.20;40.50;;;;;;4971205;28;20266;-68
2023/06/11 05:02:46;;;;;;;8.97;2.33;;;21.70;41.10;;;;;;4971740;28;20198;-70
2023/06/11 05:05:13;;;;;;;7.90;2.63;;;21.50;42.10;;;;;;4972246;28;20190;-70
2023/06/11 05:07:41;;;;;;;5.50;2.50;;;21.30;42.60;;;;;;4971932;28;20179;-69
2023/06/11 05:10:09;;;;;;;7.93;2.60;;;21.30;42.90;;;;;;4973014;28;20194;-71
2023/06/11 05:12:36;;;;;;;11.20;2.30;;;21.50;43.50;;;;;;4974817;28;20228;-70
2023/06/11 05:15:04;;;;;;;8.20;2.90;;;21.30;42.70;;;;;;4974461;28;20190;-67
2023/06/11 05:17:32;;;;;;;8.37;2.27;;;21.50;43.30;;;;;;4975667;28;20207;-66
2023/06/11 05:20:00;;;;;;;7.37;2.33;;;21.70;42.40;;;;;;4975507;28;20210;-65
2023/06/11 05:22:27;;;;;;;8.47;2.60;;;21.40;43.20;;;;;;4975183;28;20182;-66
2023/06/11 05:24:55;;;;;;;7.33;2.00;;;21.30;43.40;;;;;;4974980;28;20187;-65
2023/06/11 05:27:24;;;;;;;7.67;2.30;;;21.30;43.60;;;;;;4975059;28;20665;-66
2023/06/11 05:29:51;;;;;;;8.90;2.50;;;21.70;43.20;;;;;;4973234;28;20248;-71
2023/06/11 05:32:19;;;;;;;9.03;2.40;;;21.60;43.80;;;;;;4973969;28;20661;-66
2023/06/11 05:34:49;;;;;;;7.80;2.70;;;22.30;42.90;;;;;;4974966;28;20193;-66
2023/06/11 05:37:17;;;;;;;4.63;2.10;;;22.10;42.10;;;;;;4975182;28;20205;-66
2023/06/11 05:39:45;;;;;;;4.90;2.00;;;22.30;41.70;;;;;;4971532;28;20266;-66
2023/06/11 05:42:13;;;;;;;4.10;1.70;;;22.70;39.90;;;;;;4973864;28;20214;-65
2023/06/11 05:44:40;;;;;;;8.30;2.60;;;22.50;41.10;;;;;;4971211;28;20179;-65
2023/06/11 05:47:07;;;;;;;6.70;3.07;;;22.30;40.80;;;;;;4972341;28;20187;-65
2023/06/11 05:49:35;;;;;;;4.93;2.20;;;22.30;40.50;;;;;;4970572;28;20195;-70
2023/06/11 05:52:02;;;;;;;4.80;1.93;;;21.60;41.60;;;;;;4974024;28;20538;-68
2023/06/11 05:54:29;;;;;;;5.37;2.00;;;21.70;42.00;;;;;;4971348;28;20196;-70
2023/06/11 05:56:58;;;;;;;4.73;2.20;;;21.80;42.00;;;;;;4973725;28;20214;-70
2023/06/11 05:59:25;;;;;;;4.30;1.80;;;21.10;43.10;;;;;;4971074;28;20649;-71
2023/06/11 06:01:52;;;;;;;5.67;1.70;;;21.20;43.70;;;;;;4973187;28;20733;-71
2023/06/11 06:04:20;;;;;;;6.40;2.10;;;21.10;43.90;;;;;;4971514;28;20191;-71
2023/06/11 06:06:47;;;;;;;6.57;2.10;;;20.50;44.30;;;;;;4974072;28;20782;-72
2023/06/11 06:09:15;;;;;;;9.60;2.37;;;20.20;46.10;;;;;;4973647;28;20197;-72
2023/06/11 06:11:42;;;;;;;8.23;2.10;;;19.60;46.70;;;;;;4973994;28;20260;-71
2023/06/11 06:14:10;;;;;;;9.13;2.23;;;19.00;48.20;;;;;;4973837;28;20185;-70
2023/06/11 06:16:37;;;;;;;7.13;2.50;;;18.60;48.90;;;;;;4972367;28;20687;-70
2023/06/11 06:19:05;;;;;;;6.63;2.53;;;18.20;50.40;;;;;;4973783;28;20182;-70
2023/06/11 06:21:32;;;;;;;5.97;2.30;;;18.00;51.10;;;;;;4972411;28;20190;-70
2023/06/11 06:23:59;;;;;;;8.07;2.43;;;17.80;51.80;;;;;;4973587;28;20660;-65
2023/06/11 06:26:28;;;;;;;8.00;2.30;;;17.80;52.70;;;;;;4973931;28;20187;-70
2023/06/11 06:28:55;;;;;;;6.43;1.90;;;17.60;52.70;;;;;;4974669;28;20270;-65
2023/06/11 06:31:22;;;;;;;6.87;1.80;;;17.30;53.60;;;;;;4970351;28;20216;-69
2023/06/11 06:33:50;;;;;;;7.20;2.10;;;17.10;54.60;;;;;;4972434;28;20182;-66
2023/06/11 06:36:21;;;;;;;5.70;2.10;;;16.90;55.70;;;;;;4974059;28;20261;-70
2023/06/11 06:38:48;;;;;;;5.97;2.30;;;16.80;56.30;;;;;;4966836;28;20191;-66
2023/06/11 06:41:15;;;;;;;6.60;2.23;;;16.70;57.10;;;;;;4973909;28;20210;-70
2023/06/11 06:43:43;;;;;;;5.40;2.20;;;16.60;57.70;;;;;;4973443;28;20545;-69
2023/06/11 06:46:10;;;;;;;9.37;2.57;;;16.50;58.10;;;;;;4973592;28;20266;-65
2023/06/11 06:48:38;;;;;;;7.67;1.90;;;16.40;58.80;;;;;;4972866;28;20653;-66
2023/06/11 06:51:05;;;;;;;7.63;2.00;;;16.40;59.10;;;;;;4951637;28;20707;-69
2023/06/11 06:53:32;;;;;;;8.50;2.40;;;16.30;60.00;;;;;;4973551;28;20249;-70
2023/06/11 06:56:00;;;;;;;7.67;2.50;;;16.20;60.30;;;;;;4973633;28;20207;-67
2023/06/11 06:58:28;;;;;;;7.67;2.33;;;16.10;60.70;;;;;;4970899;28;20648;-68
2023/06/11 07:00:55;;;;;;;13.17;3.07;;;16.10;61.30;;;;;;4973197;28;20194;-68
2023/06/11 07:03:23;;;;;;;9.70;2.27;;;16.00;61.50;;;;;;4973837;28;20193;-65
2023/06/11 07:05:50;;;;;;;7.83;2.53;;;15.90;62.10;;;;;;4973923;28;20194;-66
2023/06/11 07:08:18;;;;;;;7.20;2.03;;;15.80;62.40;;;;;;4973062;28;20193;-66
2023/06/11 07:10:54;;;;;;;7.40;3.20;;;15.80;62.90;;;;;;4973587;28;20258;-67
2023/06/11 07:13:22;;;;;;;11.80;4.43;;;15.70;63.60;;;;;;4973619;28;20254;-71
2023/06/11 07:15:50;;;;;;;11.20;5.00;;;15.60;63.90;;;;;;4973113;28;20245;-69
2023/06/11 07:18:18;;;;;;;9.00;4.60;;;15.50;64.00;;;;;;4971864;28;20675;-72
2023/06/11 07:20:46;;;;;;;8.23;4.00;;;15.30;64.40;;;;;;4973201;28;20335;-66
2023/06/11 07:23:13;;;;;;;11.10;4.27;;;15.20;65.00;;;;;;4972206;28;20215;-70
2023/06/11 07:25:43;;;;;;;7.03;4.20;;;15.20;65.40;;;;;;4973787;28;20697;-67
2023/06/11 07:28:10;;;;;;;12.13;4.90;;;15.00;65.80;;;;;;4972671;28;20188;-67
2023/06/11 07:30:37;;;;;;;8.43;4.73;;;14.90;66.30;;;;;;4972459;28;20193;-66
2023/06/11 07:33:05;;;;;;;8.23;4.30;;;14.90;66.50;;;;;;4972646;28;20250;-68
2023/06/11 07:35:32;;;;;;;9.63;4.47;;;14.80;66.80;;;;;;4972230;28;20183;-67
2023/06/11 07:38:00;;;;;;;8.47;4.43;;;14.80;67.40;;;;;;4973083;28;20326;-67
2023/06/11 07:40:27;;;;;;;11.87;4.67;;;14.70;67.60;;;;;;4972797;28;20187;-66
2023/06/11 07:42:54;;;;;;;10.90;4.30;;;14.70;68.00;;;;;;4971940;28;20187;-66
2023/06/11 07:45:22;;;;;;;12.93;4.00;;;14.60;68.30;;;;;;4971755;28;20767;-67
2023/06/11 07:47:49;;;;;;;5.40;3.63;;;14.70;68.80;;;;;;4972397;28;20191;-68
2023/06/11 07:50:17;;;;;;;9.30;3.90;;;14.70;69.10;;;;;;4972564;28;20540;-65
2023/06/11 07:52:44;;;;;;;11.47;3.93;;;14.70;69.10;;;;;;4972021;28;20659;-71
2023/06/11 07:55:12;;;;;;;8.13;3.77;;;14.60;69.00;;;;;;4972194;28;20246;-66
2023/06/11 07:57:39;;;;;;;8.53;3.67;;;14.50;69.50;;;;;;4972710;28;20198;-68
2023/06/11 08:00:12;;;;;;;8.87;3.30;;;14.50;69.20;;;;;;4972013;28;20177;-66
2023/06/11 08:02:43;;;;;;;11.17;3.20;;;14.50;69.70;;;;;;4969681;28;20615;-66
2023/06/11 08:05:12;;;;;;;8.07;3.57;;;14.40;69.20;;;;;;4969080;28;20273;-66
2023/06/11 08:07:39;;;;;;;6.83;3.40;;;14.40;69.60;;;;;;4972781;28;20188;-68
2023/06/11 08:10:07;;;;;;;11.20;3.27;;;14.40;69.70;;;;;;4950216;28;20613;-66
2023/06/11 08:12:35;;;;;;;13.93;4.00;;;14.30;70.00;;;;;;4971924;28;20214;-66
2023/06/11 08:15:02;;;;;;;8.33;3.57;;;14.30;69.90;;;;;;4968325;28;20537;-66
2023/06/11 08:17:30;;;;;;;11.43;3.80;;;14.30;70.30;;;;;;4972469;28;20651;-64
2023/06/11 08:19:58;;;;;;;10.50;3.67;;;14.30;70.00;;;;;;4972303;28;20551;-66
2023/06/11 08:22:25;;;;;;;12.67;4.70;;;14.30;70.20;;;;;;4971379;28;20190;-67
2023/06/11 08:24:53;;;;;;;13.30;4.63;;;14.20;70.70;;;;;;4968542;28;20793;-68
2023/06/11 08:27:20;;;;;;;12.10;4.60;;;14.10;70.70;;;;;;4970583;28;20183;-66
2023/06/11 08:29:48;;;;;;;8.17;4.50;;;14.10;70.90;;;;;;4969464;28;20188;-66
2023/06/11 08:32:15;;;;;;;11.23;4.57;;;14.00;70.90;;;;;;4971223;28;20599;-66
2023/06/11 08:34:42;;;;;;;11.10;4.40;;;14.00;71.10;;;;;;4969868;28;21444;-71
2023/06/11 08:37:10;;;;;;;12.53;4.47;;;14.00;71.40;;;;;;4970689;28;20183;-71
2023/06/11 08:39:37;;;;;;;10.13;4.40;;;13.90;71.90;;;;;;4971724;28;20266;-71
2023/06/11 08:42:05;;;;;;;11.33;4.60;;;13.90;71.90;;;;;;4968672;28;20183;-71
2023/06/11 08:44:35;;;;;;;7.73;3.73;;;13.80;72.00;;;;;;4970708;28;20191;-71
2023/06/11 08:47:04;;;;;;;8.50;4.17;;;13.80;72.30;;;;;;4969333;28;20191;-72
2023/06/11 08:49:31;;;;;;;9.93;4.43;;;13.70;72.60;;;;;;4972834;28;20516;-70
2023/06/11 08:52:08;;;;;;;10.20;4.87;;;13.70;72.90;;;;;;4974507;28;20226;-70
2023/06/11 08:54:36;;;;;;;8.80;4.47;;;13.70;73.30;;;;;;4972643;28;20186;-73
2023/06/11 08:57:07;;;;;;;13.60;5.33;;;13.70;73.40;;;;;;4974984;28;20256;-72
2023/06/11 08:59:34;;;;;;;12.83;5.73;;;13.70;73.70;;;;;;4973505;28;20191;-70
2023/06/11 09:02:01;;;;;;;11.63;4.90;;;13.60;73.50;;;;;;4972749;28;21531;-71
2023/06/11 09:04:30;;;;;;;13.77;6.13;;;13.60;73.70;;;;;;4970694;28;20213;-70
2023/06/11 09:07:02;;;;;;;18.77;5.47;;;13.60;74.10;;;;;;4973345;28;20286;-70
2023/06/11 09:09:29;;;;;;;13.73;5.03;;;13.60;74.30;;;;;;4975187;28;20190;-71
2023/06/11 09:11:57;;;;;;;8.47;5.00;;;13.50;74.50;;;;;;4974731;28;20222;-70
2023/06/11 09:14:24;;;;;;;12.43;5.00;;;13.50;74.50;;;;;;4965005;28;20202;-70
2023/06/11 09:16:52;;;;;;;15.13;4.87;;;13.40;75.00;;;;;;4970924;28;20343;-70
2023/06/11 09:19:20;;;;;;;12.80;5.33;;;13.30;74.90;;;;;;4971711;28;20179;-67
2023/06/11 09:21:56;;;;;;;12.17;5.47;;;13.30;75.40;;;;;;4974372;28;20191;-71
2023/06/11 09:24:24;;;;;;;14.27;5.33;;;13.20;75.30;;;;;;4968213;28;21045;-70
2023/06/11 09:26:54;;;;;;;10.17;4.77;;;13.20;75.70;;;;;;4970801;28;20183;-70
2023/06/11 09:29:22;;;;;;;12.80;5.30;;;13.20;76.10;;;;;;4973848;28;20185;-71
2023/06/11 09:32:11;;;;;;;19.33;5.87;;;13.20;76.20;;;;;;4973724;28;20207;-70
2023/06/11 09:34:38;;;;;;;13.63;5.47;;;13.20;76.60;;;;;;4978932;28;20194;-71
2023/06/11 09:37:09;;;;;;;15.80;5.50;;;13.20;76.70;;;;;;4983938;28;20183;-69
2023/06/11 09:39:37;;;;;;;14.47;5.10;;;13.20;76.70;;;;;;4976433;28;20187;-71
2023/06/11 09:42:04;;;;;;;10.60;5.03;;;13.20;76.80;;;;;;4973198;28;20218;-71
2023/06/11 09:44:34;;;;;;;15.60;5.73;;;13.10;77.10;;;;;;4974749;28;20195;-71
2023/06/11 09:47:03;;;;;;;12.90;6.33;;;13.00;77.10;;;;;;4974165;28;20171;-72
2023/06/11 09:49:31;;;;;;;12.30;6.20;;;13.00;77.20;;;;;;4973313;28;20241;-71
2023/06/11 09:51:59;;;;;;;16.80;7.93;;;13.00;77.50;;;;;;4973641;28;20238;-70
2023/06/11 09:54:27;;;;;;;13.87;9.10;;;12.90;77.50;;;;;;4973099;28;20186;-67
2023/06/11 09:56:56;;;;;;;21.53;11.97;;;12.80;77.70;;;;;;4971771;28;20206;-71
2023/06/11 09:59:24;;;;;;;28.87;15.67;;;12.80;77.90;;;;;;4969963;28;20187;-68
2023/06/11 10:01:52;;;;;;;33.70;17.67;;;12.70;78.00;;;;;;4973046;28;20237;-68
2023/06/11 10:04:19;;;;;;;21.27;13.37;;;12.70;78.20;;;;;;4971559;28;20245;-66
2023/06/11 10:06:50;;;;;;;22.67;12.77;;;12.60;78.40;;;;;;4971781;28;20190;-67
2023/06/11 10:09:19;;;;;;;25.30;11.40;;;12.60;78.80;;;;;;4956919;28;20269;-70
2023/06/11 10:11:48;;;;;;;18.00;10.83;;;12.60;78.80;;;;;;4970459;28;20210;-68
2023/06/11 10:14:20;;;;;;;23.03;10.73;;;12.60;79.20;;;;;;4968259;28;20179;-69
2023/06/11 10:16:51;;;;;;;18.13;11.17;;;12.60;79.30;;;;;;4973332;28;20532;-68
2023/06/11 10:19:21;;;;;;;20.43;11.47;;;12.60;79.20;;;;;;4972572;28;20178;-67
2023/06/11 10:21:50;;;;;;;25.23;12.30;;;12.50;79.60;;;;;;4972927;28;20298;-70
2023/06/11 10:24:26;;;;;;;21.50;11.40;;;12.50;79.80;;;;;;4972933;28;20187;-67
2023/06/11 10:27:12;;;;;;;21.87;12.13;;;12.50;80.00;;;;;;4971244;28;20253;-69
2023/06/11 10:29:47;;;;;;;23.17;12.30;;;12.50;80.40;;;;;;4972141;28;20264;-68
2023/06/11 10:32:19;;;;;;;24.30;13.27;;;12.40;80.60;;;;;;4973114;28;20236;-69
2023/06/11 10:35:04;;;;;;;24.57;14.23;;;12.40;80.80;;;;;;4974262;28;20179;-70
2023/06/11 10:37:39;;;;;;;19.20;11.73;;;12.30;80.80;;;;;;4973444;28;20269;-71
2023/06/11 10:40:08;;;;;;;17.00;10.43;;;12.40;81.40;;;;;;4970460;28;20190;-67
2023/06/11 10:42:36;;;;;;;20.37;10.20;;;12.40;81.50;;;;;;4972372;28;20198;-72
2023/06/11 10:45:13;;;;;;;18.47;11.03;;;12.30;81.80;;;;;;4975450;28;20205;-67
2023/06/11 10:47:47;;;;;;;22.43;12.33;;;12.30;82.20;;;;;;4970070;28;20648;-67
2023/06/11 10:50:30;;;;;;;26.93;11.27;;;12.30;82.30;;;;;;4973949;28;20240;-66
2023/06/11 10:52:59;;;;;;;21.17;12.97;;;12.30;82.90;;;;;;4973193;28;20218;-66
2023/06/11 10:55:29;;;;;;;22.83;11.53;;;12.30;82.50;;;;;;4970537;28;20233;-66
2023/06/11 10:57:57;;;;;;;19.47;10.50;;;12.30;82.60;;;;;;4971945;28;20237;-66
2023/06/11 11:00:32;;;;;;;17.53;11.03;;;12.20;82.80;;;;;;4972425;28;20707;-67
2023/06/11 11:03:03;;;;;;;19.00;12.97;;;12.20;82.80;;;;;;4973163;28;20186;-66
2023/06/11 11:05:30;;;;;;;16.77;11.50;;;12.20;83.00;;;;;;4970417;28;20270;-66
2023/06/11 11:08:00;;;;;;;17.20;11.17;;;12.20;83.20;;;;;;4970556;28;20193;-66
2023/06/11 11:10:29;;;;;;;17.30;10.00;;;12.20;83.10;;;;;;4973681;28;20255;-67
2023/06/11 11:12:56;;;;;;;18.47;9.73;;;12.20;83.40;;;;;;4973708;28;20192;-67
2023/06/11 11:15:24;;;;;;;20.90;11.27;;;12.10;83.30;;;;;;4971234;28;20565;-66
2023/06/11 11:17:51;;;;;;;18.97;12.63;;;12.10;83.40;;;;;;4973606;28;20652;-66
2023/06/11 11:20:19;;;;;;;17.57;11.50;;;12.00;83.40;;;;;;4969975;28;20669;-66
2023/06/11 11:22:55;;;;;;;25.73;15.53;;;12.00;83.50;;;;;;4972060;28;20274;-66
2023/06/11 11:25:31;;;;;;;20.83;13.90;;;12.00;83.50;;;;;;4970684;28;20182;-67
2023/06/11 11:27:59;;;;;;;19.30;13.23;;;12.00;83.70;;;;;;4971739;28;20653;-67
2023/06/11 11:30:28;;;;;;;25.33;14.37;;;11.90;83.70;;;;;;4972193;28;20205;-66
2023/06/11 11:32:56;;;;;;;19.23;13.30;;;11.90;83.60;;;;;;4955201;28;20225;-65
2023/06/11 11:35:26;;;;;;;20.60;11.93;;;11.90;83.90;;;;;;4973119;28;20550;-66
2023/06/11 11:37:55;;;;;;;18.43;10.93;;;11.90;83.80;;;;;;4972273;28;20199;-67
2023/06/11 11:40:23;;;;;;;14.83;10.80;;;11.90;84.00;;;;;;4971102;28;20269;-67
2023/06/11 11:42:56;;;;;;;16.53;10.47;;;11.90;84.20;;;;;;4972207;28;20659;-67
2023/06/11 11:45:32;;;;;;;15.73;10.60;;;11.80;84.20;;;;;;4972880;28;20612;-67
2023/06/11 11:48:02;;;;;;;16.80;10.27;;;11.80;84.50;;;;;;4970851;28;20194;-66
2023/06/11 11:50:30;;;;;;;16.83;10.93;;;11.80;84.40;;;;;;4969773;28;20191;-66
2023/06/11 11:53:15;;;;;;;15.37;11.80;;;11.70;84.30;;;;;;4970298;28;20245;-66
2023/06/11 11:55:44;;;;;;;21.47;12.83;;;11.70;84.40;;;;;;4968534;28;20194;-67
2023/06/11 11:58:16;;;;;;;23.30;13.87;;;11.70;84.70;;;;;;4971150;28;20177;-65
2023/06/11 12:00:56;;;;;;;27.47;14.47;;;11.60;84.60;;;;;;4969726;28;20174;-66
2023/06/11 12:03:24;;;;;;;18.27;13.23;;;11.60;84.80;;;;;;4969973;28;20201;-66
2023/06/11 12:06:06;;;;;;;21.10;15.37;;;11.60;84.90;;;;;;4970240;28;20644;-67
2023/06/11 12:08:35;;;;;;;23.70;16.33;;;11.60;84.60;;;;;;4967836;28;20186;-66
2023/06/11 12:11:06;;;;;;;31.30;18.53;;;11.50;84.30;;;;;;4965041;28;20266;-66
2023/06/11 12:13:34;;;;;;;34.30;19.07;;;11.40;84.40;;;;;;4967583;28;20197;-66
2023/06/11 12:16:02;;;;;;;25.93;17.33;;;11.20;84.40;;;;;;4968804;28;20337;-66
2023/06/11 12:18:29;;;;;;;27.57;17.47;;;11.20;84.80;;;;;;4969454;28;20661;-66
2023/06/11 12:20:56;;;;;;;27.77;17.33;;;11.20;84.90;;;;;;4971270;28;20289;-66
2023/06/11 12:23:24;;;;;;;27.90;16.43;;;11.20;85.20;;;;;;4976336;28;20183;-67
2023/06/11 12:25:51;;;;;;;27.43;18.67;;;11.30;85.20;;;;;;4976531;28;20239;-66
2023/06/11 12:28:19;;;;;;;33.03;19.57;;;11.30;85.40;;;;;;4976938;28;20198;-66
2023/06/11 12:30:46;;;;;;;32.80;17.93;;;11.20;85.20;;;;;;4976066;28;20273;-66
2023/06/11 12:33:15;;;;;;;24.37;15.60;;;11.20;85.40;;;;;;4975856;28;20194;-66
2023/06/11 12:35:44;;;;;;;21.07;13.40;;;11.30;85.60;;;;;;4976647;28;20273;-66
2023/06/11 12:38:12;;;;;;;21.17;14.60;;;11.20;85.80;;;;;;4976118;28;20225;-66
2023/06/11 12:40:40;;;;;;;26.80;15.63;;;11.20;85.80;;;;;;4976295;28;20182;-66
2023/06/11 12:43:07;;;;;;;25.97;15.00;;;11.30;85.80;;;;;;4975595;28;20186;-66
2023/06/11 12:45:37;;;;;;;21.10;13.93;;;11.20;85.90;;;;;;4976311;28;20194;-66
2023/06/11 12:48:05;;;;;;;20.70;13.20;;;11.20;85.90;;;;;;4975743;28;20189;-66
2023/06/11 12:50:32;;;;;;;17.97;12.27;;;11.20;85.90;;;;;;4975557;28;20221;-66